• Join FlightAware (Why Join?)
  • Login
  • US Flag 
09:26PM EDT


 

Airport Tracker/Info


-or-


 

Live Flight TrackerFlight Track Log ✈ EGF4039 ✈ 12-May-2013 ✈ KALO - KORD

Flight Track Log - Related Links

Times and Time Zones

All times are in EDT time to prevent confusion due to time zone crossing. See the EGF4039 flight status page for this flight to view local times or setup timezone preferences in your user account.

Time Position Orientation Groundspeed Altitude Reporting Facility
EDT Latitude Longitude Course Direction KTS MPH feet Rate Location/Type
04:54PM 42.5803 -92.4322 97° East 161 185 2,700  Level Chicago Center
04:55PM 42.6089 -92.3731 57° Northeast 239 275 4,900 2,520 Climbing Chicago Center
04:56PM 42.5953 -92.2747 101° East 259 298 8,000 2,700 Climbing Chicago Center
04:57PM 42.5822 -92.1503 98° East 271 312 10,500 1,980 Climbing Chicago Center
04:58PM 42.4916 -91.7740 97° East  Level FlightAware Approximate
04:58PM 42.5689 -92.0281 98° East 305 351 12,200  Level Chicago Center
04:59PM 42.4833 -91.6483 90° East  Level FlightAware Approximate
05:00PM 42.4733 -91.5273 97° East  Level FlightAware Approximate
05:00PM 42.5528 -91.8956 99° East 336 387 13,200  Level Chicago Center
05:01PM 42.5350 -91.7542 100° East 376 433 14,400 1,320 Climbing Chicago Center
05:02PM 42.5139 -91.5811 99° East 395 455 16,000 1,500 Climbing Chicago Center
05:03PM 42.4958 -91.4331 99° East 405 466 17,500 1,200 Climbing Chicago Center
05:04PM 42.4767 -91.2828 100° East 409 471 18,500 1,020 Climbing Chicago Center
05:05PM 42.4564 -91.1286 100° East 420 483 19,700 1,440 Climbing Chicago Center
05:06PM 42.4311 -90.9406 100° East 428 493 21,500 1,380 Climbing Chicago Center
05:07PM 42.4106 -90.7828 100° East 429 494 22,600 720 Climbing Chicago Center
05:08PM 42.4058 -90.6197 92° East 444 511 23,000 180 Climbing Chicago Center
05:09PM 42.4253 -90.4586 81° East 439 505 23,000  Level Chicago Center
05:10PM 42.4278 -90.2894 89° East 453 521 23,000  Level Chicago Center
05:11PM 42.4208 -90.0817 93° East 463 533 23,000 -360 Level Chicago Center
05:12PM 42.4167 -89.9117 92° East 463 533 22,300 -1,560 Descending Chicago Center
05:13PM 42.4128 -89.7406 92° East 457 526 19,800 -2,460 Descending Chicago Center
05:14PM 42.4072 -89.5481 92° East 441 507 17,300 -2,220 Descending Chicago Center
05:15PM 42.4031 -89.3928 92° East 421 484 15,300 -1,560 Descending Chicago Center
05:16PM 42.3989 -89.2436 92° East 406 467 14,100 -600 Descending Chicago Center
05:17PM 42.3944 -89.0947 92° East 399 459 14,100 -420 Level Chicago Center
05:18PM 42.3897 -88.9453 92° East 398 458 13,300 -1,740 Descending Chicago Center
05:19PM 42.3839 -88.7769 93° East 390 449 10,600 -1,620 Descending Chicago Center
05:20PM 42.3797 -88.6447 92° East 364 419 10,000 -300 Descending Chicago Center
05:21PM 42.3750 -88.5133 93° East 354 407 10,000  Level Chicago Center
05:22PM 42.3411 -88.3833 109° East 368 423 10,000  Level Chicago Center
05:23PM 42.2719 -88.2719 130° Southeast 371 427 10,000  Level Chicago Center
05:24PM 42.2061 -88.1647 130° Southeast 371 427 10,000 -360 Level Chicago Center
05:25PM 42.1406 -88.0814 137° Southeast 319 367 9,300 -960 Descending Chicago Center
05:26PM 42.0917 -87.9978 128° Southeast 302 348 8,100 -1,140 Descending Chicago Center
05:27PM 42.0908 -87.8753 90° East 275 316 7,000 -780 Descending Chicago Center
05:28PM 42.0919 -87.7831 89° East 255 293 6,500 -540 Descending Chicago Center